Time;durP1;ratioP1;P1;durP2;ratioP2;P2;SDS_P1;SDS_P2;PMS_P1;PMS_P2;Temp;Humidity;BMP_temperature;BMP_pressure;BME280_temperature;BME280_humidity;BME280_pressure;Samples;Min_cycle;Max_cycle;Signal;HPM_P1;HPM_P2
2022/03/09 00:02:19;;;;;;;4.20;2.40;;;16.70;34.00;;;;;;5124950;27;46375;-77
2022/03/09 00:04:47;;;;;;;3.15;2.28;;;16.70;34.20;;;;;;5126348;27;45187;-77
2022/03/09 00:07:14;;;;;;;3.17;2.03;;;16.70;34.30;;;;;;5123940;27;45263;-77
2022/03/09 00:09:41;;;;;;;4.10;2.50;;;16.70;34.40;;;;;;5129128;27;45390;-77
2022/03/09 00:12:09;;;;;;;2.88;2.08;;;16.70;34.40;;;;;;5129114;27;47196;-77
2022/03/09 00:14:36;;;;;;;3.17;2.00;;;16.70;34.70;;;;;;5122385;27;45298;-77
2022/03/09 00:17:03;;;;;;;2.78;2.00;;;16.70;34.30;;;;;;5128232;27;45295;-77
2022/03/09 00:19:30;;;;;;;3.47;2.30;;;16.70;34.40;;;;;;5126444;27;45316;-77
2022/03/09 00:21:58;;;;;;;3.92;2.63;;;16.70;34.30;;;;;;5130426;27;45485;-77
2022/03/09 00:24:25;;;;;;;2.53;2.00;;;16.70;34.20;;;;;;5110759;27;45550;-77
2022/03/09 00:26:52;;;;;;;5.38;2.58;;;16.70;34.10;;;;;;5113414;27;45569;-77
2022/03/09 00:29:19;;;;;;;2.90;2.05;;;16.80;34.50;;;;;;5125337;27;45443;-77
2022/03/09 00:31:46;;;;;;;3.03;2.30;;;16.80;34.20;;;;;;5125292;27;46755;-77
2022/03/09 00:34:13;;;;;;;2.90;2.05;;;16.80;34.40;;;;;;5121593;27;45274;-77
2022/03/09 00:36:40;;;;;;;3.28;2.17;;;16.80;34.40;;;;;;5127243;27;45309;-77
2022/03/09 00:39:09;;;;;;;3.47;2.35;;;16.80;34.30;;;;;;5114444;27;45335;-77
2022/03/09 00:41:36;;;;;;;4.07;2.40;;;16.80;34.30;;;;;;5120107;27;46148;-77
2022/03/09 00:44:04;;;;;;;2.60;2.05;;;16.80;34.00;;;;;;5129032;27;45207;-77
2022/03/09 00:46:32;;;;;;;3.13;2.40;;;16.80;33.90;;;;;;5122085;27;45480;-77
2022/03/09 00:48:58;;;;;;;4.15;2.42;;;16.70;34.20;;;;;;5109533;27;45338;-77
2022/03/09 00:51:25;;;;;;;2.97;2.28;;;16.70;34.40;;;;;;5119321;27;48226;-77
2022/03/09 00:53:52;;;;;;;4.05;2.30;;;16.70;34.40;;;;;;5130314;27;45206;-77
2022/03/09 00:56:21;;;;;;;4.00;2.47;;;16.70;34.50;;;;;;5114633;27;45256;-77
2022/03/09 00:58:48;;;;;;;3.40;2.40;;;16.70;34.40;;;;;;5122661;27;45312;-77
2022/03/09 01:01:15;;;;;;;3.50;2.40;;;16.70;34.30;;;;;;5116326;27;47194;-77
2022/03/09 01:03:42;;;;;;;4.45;2.55;;;16.70;34.20;;;;;;5130164;27;45195;-77
2022/03/09 01:06:09;;;;;;;3.80;2.53;;;16.70;34.20;;;;;;5124237;27;45235;-77
2022/03/09 01:08:36;;;;;;;4.45;2.53;;;16.70;34.10;;;;;;5121008;27;45531;-77
2022/03/09 01:11:03;;;;;;;3.17;2.28;;;16.70;34.20;;;;;;5130008;27;45242;-76
2022/03/09 01:13:31;;;;;;;5.15;2.30;;;16.80;34.10;;;;;;5123556;27;45237;-77
2022/03/09 01:15:58;;;;;;;3.05;2.20;;;16.80;34.40;;;;;;5119809;27;45170;-77
2022/03/09 01:18:25;;;;;;;4.28;2.58;;;16.80;34.10;;;;;;5126622;27;45243;-77
2022/03/09 01:20:52;;;;;;;2.78;2.17;;;16.80;34.10;;;;;;5115108;27;46173;-77
2022/03/09 01:23:19;;;;;;;3.58;2.30;;;16.80;34.10;;;;;;5129735;27;45432;-77
2022/03/09 01:25:45;;;;;;;4.13;2.15;;;16.80;34.10;;;;;;5123055;27;45473;-77
2022/03/09 01:28:12;;;;;;;2.95;2.13;;;16.80;34.10;;;;;;5128056;27;45242;-77
2022/03/09 01:30:40;;;;;;;2.90;2.30;;;16.80;33.90;;;;;;5128439;27;46284;-77
2022/03/09 01:33:07;;;;;;;3.67;2.33;;;16.80;34.00;;;;;;5125022;27;45103;-77
2022/03/09 01:35:34;;;;;;;3.60;2.30;;;16.70;33.90;;;;;;5126209;27;45416;-77
2022/03/09 01:38:01;;;;;;;3.83;2.28;;;16.70;33.90;;;;;;5112976;27;45219;-77
2022/03/09 01:40:28;;;;;;;3.65;2.60;;;16.70;33.80;;;;;;5122818;27;46452;-77
2022/03/09 01:42:55;;;;;;;3.85;2.30;;;16.70;33.80;;;;;;5124418;27;45138;-77
2022/03/09 01:45:22;;;;;;;3.13;2.20;;;16.70;34.10;;;;;;5113154;27;45180;-77
2022/03/09 01:47:50;;;;;;;5.93;2.40;;;16.70;34.00;;;;;;5127809;27;45498;-77
2022/03/09 01:50:17;;;;;;;3.13;2.30;;;16.70;34.00;;;;;;5121559;27;45737;-77
2022/03/09 01:52:45;;;;;;;2.83;2.10;;;16.70;33.90;;;;;;5126983;27;45232;-77
2022/03/09 01:55:12;;;;;;;4.03;2.38;;;16.70;34.10;;;;;;5114780;27;45196;-77
2022/03/09 01:57:41;;;;;;;2.95;2.10;;;16.70;34.00;;;;;;5124809;27;45215;-77
2022/03/09 02:00:09;;;;;;;2.05;1.75;;;16.70;34.00;;;;;;5123702;27;45229;-77
2022/03/09 02:02:36;;;;;;;2.97;2.15;;;16.80;34.40;;;;;;5119661;27;45357;-77
2022/03/09 02:05:05;;;;;;;4.03;2.40;;;16.80;34.10;;;;;;5128084;27;45225;-77
2022/03/09 02:10:20;;;;;;;3.58;2.40;;;16.80;34.10;;;;;;5117939;27;45408;-77
2022/03/09 02:12:47;;;;;;;3.42;2.17;;;16.80;33.90;;;;;;5129550;27;45235;-77
2022/03/09 02:15:14;;;;;;;2.80;1.90;;;16.80;33.90;;;;;;5117716;27;45279;-77
2022/03/09 02:17:41;;;;;;;3.63;2.08;;;16.80;34.00;;;;;;5114185;27;46527;-77
2022/03/09 02:20:10;;;;;;;3.08;2.22;;;16.70;33.70;;;;;;5127975;27;47422;-77
2022/03/09 02:22:40;;;;;;;3.45;2.17;;;16.70;34.00;;;;;;5129456;27;45319;-77
2022/03/09 02:25:09;;;;;;;2.75;2.20;;;16.70;34.00;;;;;;5130230;27;45242;-77
2022/03/09 02:27:37;;;;;;;3.33;2.38;;;16.70;35.20;;;;;;5113688;27;45348;-77
2022/03/09 02:30:05;;;;;;;3.58;2.25;;;16.70;34.00;;;;;;5125676;27;46330;-77
2022/03/09 02:32:32;;;;;;;2.90;2.17;;;16.70;33.70;;;;;;5125030;27;45235;-77
2022/03/09 02:34:59;;;;;;;3.60;2.30;;;16.70;33.80;;;;;;5125782;27;45451;-77
2022/03/09 02:37:26;;;;;;;2.67;2.17;;;16.70;33.70;;;;;;5126553;27;45347;-77
2022/03/09 02:39:54;;;;;;;5.13;2.65;;;16.70;33.70;;;;;;5125582;27;47100;-77
2022/03/09 02:42:21;;;;;;;2.63;1.90;;;16.70;33.90;;;;;;5129198;27;45356;-77
2022/03/09 02:44:48;;;;;;;2.45;1.88;;;16.70;33.90;;;;;;5129908;27;45185;-77
2022/03/09 02:47:14;;;;;;;2.65;2.17;;;16.80;34.40;;;;;;5118933;27;45470;-76
2022/03/09 02:49:41;;;;;;;2.95;2.05;;;16.70;34.00;;;;;;5126350;27;45197;-77
2022/03/09 02:52:08;;;;;;;3.22;2.15;;;16.80;34.20;;;;;;5113893;27;45257;-77
2022/03/09 02:54:35;;;;;;;2.47;1.88;;;16.80;34.20;;;;;;5128945;27;45400;-77
2022/03/09 02:57:04;;;;;;;3.20;2.13;;;16.80;34.00;;;;;;5130280;27;45293;-77
2022/03/09 02:59:30;;;;;;;3.03;2.25;;;16.80;33.60;;;;;;5127774;27;46303;-77
2022/03/09 03:01:57;;;;;;;3.10;2.00;;;16.80;33.50;;;;;;5119753;27;45311;-77
2022/03/09 03:04:24;;;;;;;3.22;2.20;;;16.70;33.40;;;;;;5127102;27;45234;-77
2022/03/09 03:06:51;;;;;;;3.00;2.05;;;16.70;33.40;;;;;;5125355;27;45225;-77
2022/03/09 03:09:17;;;;;;;3.20;2.08;;;16.70;33.40;;;;;;5122935;27;45578;-77
2022/03/09 03:11:44;;;;;;;3.33;2.08;;;16.70;33.30;;;;;;5112384;27;45166;-76
2022/03/09 03:14:12;;;;;;;3.80;2.13;;;16.70;33.40;;;;;;5118437;27;45213;-76
2022/03/09 03:16:39;;;;;;;2.85;2.22;;;16.70;33.60;;;;;;5130403;27;45180;-76
2022/03/09 03:19:06;;;;;;;2.80;2.00;;;16.70;33.30;;;;;;5127922;27;45243;-76
2022/03/09 03:21:34;;;;;;;4.13;2.17;;;16.70;33.40;;;;;;5129938;27;45243;-76
2022/03/09 03:24:00;;;;;;;2.53;2.00;;;16.70;33.40;;;;;;5130999;27;45127;-76
2022/03/09 03:26:28;;;;;;;3.60;2.50;;;16.70;33.50;;;;;;5131109;27;45170;-77
2022/03/09 03:28:55;;;;;;;3.30;2.03;;;16.70;33.60;;;;;;5115441;27;45471;-76
2022/03/09 03:31:23;;;;;;;3.03;1.90;;;16.70;33.40;;;;;;5115899;27;45349;-77
2022/03/09 03:33:50;;;;;;;2.92;2.42;;;16.70;33.70;;;;;;5129039;27;46945;-76
2022/03/09 03:36:17;;;;;;;4.55;2.28;;;16.70;33.70;;;;;;5126541;27;45230;-77
2022/03/09 03:38:44;;;;;;;3.35;2.20;;;16.80;33.70;;;;;;5129483;27;48240;-76
2022/03/09 03:41:11;;;;;;;2.50;1.90;;;16.80;33.90;;;;;;5130455;27;45193;-76
2022/03/09 03:43:37;;;;;;;2.78;1.70;;;16.80;34.00;;;;;;5126370;27;45293;-76
2022/03/09 03:46:05;;;;;;;4.32;2.25;;;16.80;33.60;;;;;;5124193;27;45175;-77
2022/03/09 03:48:33;;;;;;;3.35;2.03;;;16.80;33.20;;;;;;5123844;27;45263;-76
2022/03/09 03:51:00;;;;;;;3.88;2.13;;;16.70;33.30;;;;;;5126562;27;45585;-76
2022/03/09 03:53:27;;;;;;;2.53;1.75;;;16.70;33.60;;;;;;5131638;27;45226;-76
2022/03/09 03:55:53;;;;;;;4.38;2.40;;;16.70;33.30;;;;;;5126710;27;45453;-76
2022/03/09 03:58:20;;;;;;;2.55;2.10;;;16.70;33.60;;;;;;5129431;27;47829;-76
2022/03/09 04:00:47;;;;;;;3.38;2.30;;;16.70;33.40;;;;;;5123066;27;45219;-76
2022/03/09 04:03:14;;;;;;;3.13;2.10;;;16.70;33.40;;;;;;5123945;27;45446;-76
2022/03/09 04:05:42;;;;;;;2.80;2.30;;;16.70;33.40;;;;;;5128763;27;45581;-76
2022/03/09 04:08:09;;;;;;;3.72;2.38;;;16.70;33.30;;;;;;5128231;27;47263;-76
2022/03/09 04:10:36;;;;;;;3.75;2.50;;;16.70;33.50;;;;;;5110238;27;45232;-76
2022/03/09 04:13:04;;;;;;;3.58;2.20;;;16.70;32.90;;;;;;5118738;27;45522;-76
2022/03/09 04:15:31;;;;;;;3.20;2.17;;;16.70;32.60;;;;;;5121812;27;45457;-76
2022/03/09 04:17:59;;;;;;;3.50;2.55;;;16.70;32.70;;;;;;5110841;27;47156;-76
2022/03/09 04:20:26;;;;;;;3.15;2.30;;;16.70;32.90;;;;;;5125861;27;45292;-76
2022/03/09 04:22:54;;;;;;;4.00;2.38;;;16.70;32.60;;;;;;5129837;27;45124;-76
2022/03/09 04:25:22;;;;;;;3.22;2.60;;;16.70;32.90;;;;;;5130308;27;45391;-77
2022/03/09 04:27:49;;;;;;;3.05;2.22;;;16.70;32.40;;;;;;5125787;27;46575;-76
2022/03/09 04:30:16;;;;;;;3.05;2.30;;;16.70;32.70;;;;;;5121457;27;46191;-76
2022/03/09 04:32:43;;;;;;;3.30;2.30;;;16.70;32.00;;;;;;5127474;27;45842;-76
2022/03/09 04:35:10;;;;;;;4.63;2.60;;;16.70;31.80;;;;;;5113870;27;45130;-76
2022/03/09 04:37:37;;;;;;;4.32;2.47;;;16.60;31.20;;;;;;5128180;27;47171;-76
2022/03/09 04:40:07;;;;;;;3.90;2.42;;;16.60;31.20;;;;;;5126914;27;45160;-76
2022/03/09 04:42:34;;;;;;;3.85;2.40;;;16.60;31.60;;;;;;5130272;27;45587;-77
2022/03/09 04:45:01;;;;;;;3.25;2.72;;;16.60;31.20;;;;;;5118655;27;45492;-76
2022/03/09 04:47:28;;;;;;;3.55;2.47;;;16.60;31.60;;;;;;5123458;27;47419;-76
2022/03/09 04:49:55;;;;;;;3.55;2.30;;;16.60;31.10;;;;;;5128485;27;45385;-75
2022/03/09 04:52:22;;;;;;;3.22;2.33;;;16.60;30.90;;;;;;5117161;27;45318;-76
2022/03/09 04:54:48;;;;;;;4.38;2.65;;;16.60;31.20;;;;;;5118265;27;45131;-76
2022/03/09 04:57:17;;;;;;;3.88;2.45;;;16.50;31.00;;;;;;5123112;27;45401;-75
2022/03/09 04:59:44;;;;;;;4.57;2.33;;;16.60;31.10;;;;;;5121170;27;45311;-76
2022/03/09 05:02:12;;;;;;;3.53;2.10;;;16.60;32.50;;;;;;5125677;27;45173;-78
2022/03/09 05:04:38;;;;;;;3.97;2.35;;;16.60;31.80;;;;;;5122158;27;45398;-77
2022/03/09 05:07:05;;;;;;;2.85;2.00;;;16.60;31.70;;;;;;5121413;27;46600;-75
2022/03/09 05:09:33;;;;;;;3.47;2.08;;;16.60;31.70;;;;;;5124422;27;45331;-75
2022/03/09 05:12:00;;;;;;;4.55;2.10;;;16.60;31.90;;;;;;5123382;27;45138;-76
2022/03/09 05:14:29;;;;;;;2.67;2.13;;;16.60;31.70;;;;;;5124146;27;45219;-76
2022/03/09 05:16:56;;;;;;;4.05;2.63;;;16.60;31.80;;;;;;5122219;27;45998;-75
2022/03/09 05:19:23;;;;;;;3.30;2.28;;;16.60;31.10;;;;;;5120594;27;45563;-76
2022/03/09 05:21:49;;;;;;;2.90;2.10;;;16.60;31.20;;;;;;5122125;27;45255;-77
2022/03/09 05:24:17;;;;;;;5.38;2.58;;;16.50;31.70;;;;;;5120082;27;45266;-77
2022/03/09 05:26:46;;;;;;;5.45;2.53;;;16.50;32.00;;;;;;5115886;27;45536;-75
2022/03/09 05:29:13;;;;;;;4.05;2.45;;;16.40;33.10;;;;;;5113420;27;45766;-75
2022/03/09 05:31:41;;;;;;;3.25;2.15;;;16.40;31.50;;;;;;5118470;27;45202;-75
2022/03/09 05:34:08;;;;;;;4.13;2.40;;;16.40;31.20;;;;;;5124037;27;45688;-76
2022/03/09 05:36:35;;;;;;;3.55;2.38;;;16.40;31.20;;;;;;5120653;27;46349;-76
2022/03/09 05:39:02;;;;;;;3.83;2.30;;;16.40;31.20;;;;;;5121591;27;45309;-76
2022/03/09 05:41:29;;;;;;;3.50;2.35;;;16.40;30.70;;;;;;5127076;27;45251;-76
2022/03/09 05:43:57;;;;;;;4.72;2.63;;;16.40;30.80;;;;;;5119587;27;45206;-76
2022/03/09 05:46:24;;;;;;;5.28;2.72;;;16.40;30.70;;;;;;5117742;27;46607;-76
2022/03/09 05:48:52;;;;;;;4.20;2.42;;;16.50;30.90;;;;;;5113250;27;45408;-76
2022/03/09 05:51:19;;;;;;;4.50;2.50;;;16.50;30.80;;;;;;5119726;27;45334;-76
2022/03/09 05:53:46;;;;;;;2.88;2.17;;;16.50;30.70;;;;;;5129156;27;45498;-76
2022/03/09 05:56:13;;;;;;;5.63;2.45;;;16.50;30.70;;;;;;5114881;27;48014;-75
2022/03/09 05:58:40;;;;;;;3.55;2.50;;;16.50;30.60;;;;;;5123219;27;45191;-76
2022/03/09 06:01:07;;;;;;;2.63;2.00;;;16.50;30.80;;;;;;5111879;27;45535;-76
2022/03/09 06:03:34;;;;;;;3.55;2.35;;;16.50;30.70;;;;;;5115130;27;45332;-75
2022/03/09 06:06:02;;;;;;;5.20;2.40;;;16.50;30.80;;;;;;5120965;27;45330;-78
2022/03/09 06:08:29;;;;;;;3.90;2.50;;;16.50;30.90;;;;;;5121509;27;46356;-79
2022/03/09 06:10:56;;;;;;;4.78;2.55;;;16.40;32.40;;;;;;5120159;27;45293;-79
2022/03/09 06:13:23;;;;;;;5.00;2.90;;;16.40;32.70;;;;;;5124570;27;45202;-78
2022/03/09 06:15:50;;;;;;;9.27;2.80;;;16.40;31.40;;;;;;5125936;27;45238;-78
2022/03/09 06:18:17;;;;;;;4.32;2.30;;;16.40;31.30;;;;;;5111978;27;45737;-78
2022/03/09 06:20:43;;;;;;;3.75;2.38;;;16.40;31.20;;;;;;5107945;27;45253;-77
2022/03/09 06:23:12;;;;;;;3.35;2.17;;;16.40;31.10;;;;;;5111636;27;45528;-77
2022/03/09 06:25:38;;;;;;;4.45;2.42;;;16.40;30.90;;;;;;5118417;27;47029;-77
2022/03/09 06:28:06;;;;;;;6.68;2.45;;;16.40;31.00;;;;;;5121898;27;45334;-77
2022/03/09 06:30:33;;;;;;;3.00;2.47;;;16.40;30.60;;;;;;5111890;27;45230;-77
2022/03/09 06:33:00;;;;;;;5.22;2.70;;;16.40;30.40;;;;;;5121249;27;45209;-78
2022/03/09 06:35:27;;;;;;;7.50;2.60;;;16.30;30.10;;;;;;5121162;27;45281;-76
2022/03/09 06:37:53;;;;;;;5.47;2.70;;;16.40;31.40;;;;;;5120282;27;45315;-76
2022/03/09 06:40:22;;;;;;;6.50;2.60;;;16.40;30.30;;;;;;5121279;27;45354;-76
2022/03/09 06:42:49;;;;;;;5.55;2.58;;;16.40;30.30;;;;;;5120844;27;45522;-76
2022/03/09 06:45:16;;;;;;;3.50;2.35;;;16.40;30.50;;;;;;5117567;27;46167;-76
2022/03/09 06:47:43;;;;;;;3.03;2.28;;;16.40;30.20;;;;;;5116504;27;45415;-76
2022/03/09 06:50:11;;;;;;;4.65;2.30;;;16.40;31.40;;;;;;5120336;27;45290;-77
2022/03/09 06:52:38;;;;;;;4.88;2.33;;;16.30;32.20;;;;;;5126245;27;45469;-77
2022/03/09 06:55:08;;;;;;;4.80;2.40;;;16.30;33.00;;;;;;5126073;27;45245;-76
2022/03/09 06:57:37;;;;;;;4.57;2.65;;;16.30;33.20;;;;;;5112916;27;45790;-76
2022/03/09 07:00:05;;;;;;;3.60;2.30;;;16.30;33.60;;;;;;5105118;27;45218;-76
2022/03/09 07:02:32;;;;;;;3.22;2.08;;;16.30;33.90;;;;;;5119499;27;45759;-76
2022/03/09 07:04:59;;;;;;;5.78;2.53;;;16.30;34.00;;;;;;5133796;27;46304;-76
2022/03/09 07:07:26;;;;;;;4.72;2.40;;;16.30;34.20;;;;;;5124926;27;45322;-76
2022/03/09 07:09:53;;;;;;;3.90;2.30;;;16.40;34.40;;;;;;5111381;27;45367;-76
2022/03/09 07:12:20;;;;;;;3.47;2.30;;;16.40;34.40;;;;;;5110623;27;45253;-76
2022/03/09 07:14:48;;;;;;;3.25;2.08;;;16.40;34.40;;;;;;5120966;27;45248;-76
2022/03/09 07:17:15;;;;;;;4.05;2.10;;;16.40;34.70;;;;;;5125807;27;45305;-76
2022/03/09 07:19:42;;;;;;;3.00;1.90;;;16.40;34.60;;;;;;5114064;27;45172;-77
2022/03/09 07:22:09;;;;;;;2.65;1.92;;;16.40;34.70;;;;;;5127151;27;45200;-76
2022/03/09 07:24:35;;;;;;;3.63;1.88;;;16.50;34.70;;;;;;5128791;27;46265;-76
2022/03/09 07:27:03;;;;;;;3.22;2.13;;;16.50;34.80;;;;;;5118634;27;45159;-76
2022/03/09 07:29:30;;;;;;;2.80;2.00;;;16.50;34.80;;;;;;5131574;27;45425;-76
2022/03/09 07:31:58;;;;;;;3.20;2.08;;;16.60;34.80;;;;;;5120907;27;45372;-76
2022/03/09 07:34:26;;;;;;;4.80;2.05;;;16.60;34.90;;;;;;5109051;27;46171;-76
2022/03/09 07:36:57;;;;;;;2.97;2.00;;;16.60;34.80;;;;;;5121945;27;45206;-76
2022/03/09 07:39:26;;;;;;;3.97;2.22;;;16.50;34.90;;;;;;5127450;27;45510;-77
2022/03/09 07:41:53;;;;;;;2.47;1.88;;;16.50;35.10;;;;;;5124699;27;45635;-76
2022/03/09 07:44:20;;;;;;;3.63;1.95;;;16.50;35.20;;;;;;5121035;27;45992;-76
2022/03/09 07:46:47;;;;;;;3.05;2.30;;;16.50;35.40;;;;;;5119492;27;45341;-76
2022/03/09 07:49:15;;;;;;;2.75;1.95;;;16.50;35.40;;;;;;5128256;27;45195;-77
2022/03/09 07:51:42;;;;;;;3.83;1.95;;;16.50;35.50;;;;;;5129644;27;45290;-76
2022/03/09 07:54:09;;;;;;;4.07;2.30;;;16.50;36.70;;;;;;5128333;27;45232;-76
2022/03/09 07:56:36;;;;;;;3.28;1.98;;;16.40;35.50;;;;;;5123704;27;45545;-76
2022/03/09 07:59:03;;;;;;;3.78;2.17;;;16.40;35.50;;;;;;5122988;27;45436;-76
2022/03/09 08:01:30;;;;;;;2.78;1.90;;;16.50;35.70;;;;;;5125463;27;45384;-76
2022/03/09 08:03:57;;;;;;;2.47;1.77;;;16.50;35.60;;;;;;5127074;27;47094;-76
2022/03/09 08:06:25;;;;;;;2.95;2.10;;;16.50;35.40;;;;;;5126604;27;45356;-76
2022/03/09 08:08:52;;;;;;;2.60;1.80;;;16.50;35.40;;;;;;5127543;27;45299;-76
2022/03/09 08:11:19;;;;;;;3.50;2.03;;;16.60;35.50;;;;;;5123583;27;45145;-76
2022/03/09 08:13:46;;;;;;;3.53;1.90;;;16.60;35.50;;;;;;5127506;27;47932;-76
2022/03/09 08:16:13;;;;;;;2.90;1.90;;;16.60;35.50;;;;;;5118516;27;45362;-76
2022/03/09 08:18:39;;;;;;;3.30;1.95;;;16.60;35.50;;;;;;5126042;27;45531;-76
2022/03/09 08:21:06;;;;;;;2.78;1.98;;;16.60;35.40;;;;;;5128012;27;45348;-76
2022/03/09 08:23:35;;;;;;;2.78;2.00;;;16.70;35.40;;;;;;5120019;27;46308;-77
2022/03/09 08:26:01;;;;;;;2.72;1.80;;;16.70;35.40;;;;;;5127030;27;45306;-77
2022/03/09 08:31:51;;;;;;;4.32;1.77;;;16.70;36.80;;;;;;5106504;27;45650;-77
2022/03/09 08:34:17;;;;;;;4.45;2.08;;;16.80;36.30;;;;;;5122348;27;46731;-76
2022/03/09 08:36:44;;;;;;;5.63;2.20;;;16.80;34.80;;;;;;5124896;27;45646;-76
2022/03/09 08:39:12;;;;;;;2.97;1.90;;;16.80;34.40;;;;;;5129413;27;45247;-76
2022/03/09 08:41:39;;;;;;;3.22;1.98;;;16.70;33.80;;;;;;5114814;27;45245;-76
2022/03/09 08:44:06;;;;;;;3.58;2.25;;;16.70;33.60;;;;;;5122889;27;47426;-77
2022/03/09 08:46:33;;;;;;;3.00;2.05;;;16.70;33.50;;;;;;5125451;27;45342;-77
2022/03/09 08:49:00;;;;;;;3.67;2.42;;;16.70;33.40;;;;;;5126786;27;45355;-77
2022/03/09 08:51:27;;;;;;;3.20;1.80;;;16.70;33.10;;;;;;5124362;27;45527;-76
2022/03/09 08:53:54;;;;;;;3.03;2.20;;;16.70;32.80;;;;;;5127968;27;46614;-76
2022/03/09 08:56:22;;;;;;;4.30;2.58;;;16.70;32.40;;;;;;5127067;27;45182;-76
2022/03/09 08:58:49;;;;;;;4.82;2.60;;;16.70;32.40;;;;;;5126974;27;45404;-77
2022/03/09 09:01:16;;;;;;;4.40;2.55;;;16.70;32.30;;;;;;5121061;27;45535;-76
2022/03/09 09:03:42;;;;;;;3.40;2.10;;;16.80;33.30;;;;;;5128009;27;47578;-76
2022/03/09 09:06:09;;;;;;;3.80;2.20;;;16.80;31.90;;;;;;5124837;27;45931;-76
2022/03/09 09:08:36;;;;;;;4.20;2.10;;;16.80;33.20;;;;;;5121546;27;45122;-77
2022/03/09 09:11:03;;;;;;;4.35;2.40;;;16.80;33.30;;;;;;5128236;27;45250;-76
2022/03/09 09:13:31;;;;;;;3.67;2.30;;;16.80;32.30;;;;;;5128280;27;45313;-77
2022/03/09 09:15:58;;;;;;;3.35;2.10;;;16.80;32.30;;;;;;5114883;27;45440;-76
2022/03/09 09:18:25;;;;;;;2.97;2.00;;;16.80;32.40;;;;;;5107442;27;45373;-77
2022/03/09 09:20:53;;;;;;;4.43;2.38;;;16.70;32.20;;;;;;5134079;27;45207;-76
2022/03/09 09:23:21;;;;;;;3.30;2.15;;;16.60;32.00;;;;;;5123970;27;47396;-76
2022/03/09 09:25:48;;;;;;;3.55;2.30;;;16.60;32.50;;;;;;5122366;27;45187;-76
2022/03/09 09:28:17;;;;;;;4.68;2.47;;;16.60;32.80;;;;;;5119151;27;45307;-77
2022/03/09 09:30:45;;;;;;;12.25;2.75;;;16.60;33.50;;;;;;5121902;27;45215;-76
2022/03/09 09:33:12;;;;;;;3.97;1.80;;;16.60;35.00;;;;;;5108774;27;48180;-77
2022/03/09 09:35:39;;;;;;;3.88;1.73;;;16.70;35.40;;;;;;5106524;27;45246;-77
2022/03/09 09:38:09;;;;;;;2.83;1.90;;;16.80;35.90;;;;;;5113681;27;45473;-77
2022/03/09 09:40:40;;;;;;;3.85;2.10;;;16.80;35.20;;;;;;5121291;27;45338;-77
2022/03/09 09:43:09;;;;;;;3.13;1.80;;;16.90;35.40;;;;;;5127780;27;45210;-76
2022/03/09 09:45:36;;;;;;;3.63;1.90;;;16.90;35.60;;;;;;5106979;27;45406;-76
2022/03/09 09:48:06;;;;;;;2.83;1.77;;;16.90;35.90;;;;;;5111497;27;45175;-76
2022/03/09 09:50:34;;;;;;;2.72;1.73;;;17.00;36.10;;;;;;5126182;27;45324;-76
2022/03/09 09:53:04;;;;;;;3.38;1.95;;;17.00;36.30;;;;;;5127821;27;46280;-77
2022/03/09 09:55:32;;;;;;;3.75;2.10;;;16.90;35.80;;;;;;5125221;27;45283;-76
2022/03/09 09:58:00;;;;;;;4.45;2.13;;;17.00;35.60;;;;;;5126703;27;45413;-76
2022/03/09 10:00:27;;;;;;;3.63;2.03;;;16.90;36.10;;;;;;5106894;27;45141;-76
2022/03/09 10:02:54;;;;;;;2.55;1.70;;;17.00;36.10;;;;;;5127857;27;46192;-77
2022/03/09 10:05:22;;;;;;;2.67;1.75;;;17.00;36.20;;;;;;5123207;27;45234;-76
2022/03/09 10:08:08;;;;;;;4.72;1.70;;;17.00;36.10;;;;;;5122384;27;45229;-76
2022/03/09 10:10:37;;;;;;;2.97;1.92;;;17.00;36.50;;;;;;5112026;27;45532;-77
2022/03/09 10:13:15;;;;;;;3.13;2.10;;;17.00;36.30;;;;;;5121201;27;47449;-77
2022/03/09 10:15:43;;;;;;;3.47;2.10;;;17.00;36.60;;;;;;5110255;27;45966;-77
2022/03/09 10:18:18;;;;;;;2.38;1.58;;;17.00;36.30;;;;;;5121841;27;45344;-76
2022/03/09 10:20:47;;;;;;;3.42;2.15;;;17.00;36.60;;;;;;5126929;27;45384;-76
2022/03/09 10:23:14;;;;;;;3.25;1.85;;;17.00;36.70;;;;;;5123267;27;46293;-76
2022/03/09 10:25:41;;;;;;;3.00;1.80;;;17.00;36.60;;;;;;5122447;27;45191;-76
2022/03/09 10:28:09;;;;;;;3.25;2.20;;;17.10;36.70;;;;;;5122682;27;45145;-77
2022/03/09 10:30:39;;;;;;;3.08;2.20;;;17.00;36.30;;;;;;5120038;27;45228;-77
2022/03/09 10:33:06;;;;;;;4.43;2.42;;;17.10;36.40;;;;;;5128693;27;45491;-77
2022/03/09 10:35:42;;;;;;;2.92;1.95;;;17.10;36.80;;;;;;5133394;27;45178;-77
2022/03/09 10:38:23;;;;;;;2.25;1.63;;;17.10;36.50;;;;;;5114325;27;45291;-77
2022/03/09 10:40:52;;;;;;;3.33;2.22;;;17.10;37.20;;;;;;5108587;27;45291;-77
2022/03/09 10:43:23;;;;;;;3.13;2.03;;;17.00;36.60;;;;;;5119389;27;45403;-76
2022/03/09 10:46:04;;;;;;;3.40;1.90;;;17.10;36.50;;;;;;5126095;27;45287;-76
2022/03/09 10:48:50;;;;;;;2.45;2.03;;;17.10;36.60;;;;;;5122876;27;45379;-76
2022/03/09 10:51:26;;;;;;;3.47;1.85;;;17.10;36.20;;;;;;5122129;27;45411;-76
2022/03/09 10:53:55;;;;;;;3.80;1.92;;;17.10;36.90;;;;;;5122411;27;46150;-77
2022/03/09 10:56:22;;;;;;;2.45;1.77;;;17.10;37.00;;;;;;5108963;27;45429;-76
2022/03/09 10:58:49;;;;;;;3.10;2.10;;;17.10;36.80;;;;;;5109291;27;45568;-77
2022/03/09 11:01:17;;;;;;;4.00;2.25;;;17.10;36.40;;;;;;5119599;27;45332;-77
2022/03/09 11:03:47;;;;;;;4.50;2.50;;;17.10;36.40;;;;;;5123284;27;46488;-77
2022/03/09 11:06:17;;;;;;;2.60;1.83;;;17.10;36.40;;;;;;5121253;27;45542;-77
2022/03/09 11:08:43;;;;;;;4.00;2.05;;;17.10;36.60;;;;;;5123554;27;45228;-76
2022/03/09 11:11:14;;;;;;;3.85;2.20;;;17.10;36.70;;;;;;5114076;27;45333;-76
2022/03/09 11:13:41;;;;;;;3.22;2.03;;;17.10;36.30;;;;;;5117773;27;45534;-76
2022/03/09 11:16:08;;;;;;;4.47;2.50;;;17.10;36.30;;;;;;5129887;27;45160;-77
2022/03/09 11:18:36;;;;;;;3.90;2.25;;;17.20;36.30;;;;;;5129808;27;45261;-77
2022/03/09 11:21:05;;;;;;;3.33;2.00;;;17.10;36.00;;;;;;5129693;27;45387;-77
2022/03/09 11:23:34;;;;;;;3.47;2.15;;;17.20;36.40;;;;;;5129694;27;45982;-77
2022/03/09 11:26:04;;;;;;;2.72;1.85;;;17.20;36.50;;;;;;5125984;27;45469;-76
2022/03/09 11:28:34;;;;;;;4.20;2.15;;;17.20;36.60;;;;;;5121824;27;45231;-77
2022/03/09 11:31:04;;;;;;;3.97;2.10;;;17.10;36.70;;;;;;5120277;27;45440;-77
2022/03/09 11:33:41;;;;;;;3.55;2.20;;;17.10;36.30;;;;;;5116684;27;45284;-76
2022/03/09 11:36:33;;;;;;;3.85;1.95;;;17.10;36.40;;;;;;5123151;27;45301;-77
2022/03/09 11:39:18;;;;;;;3.08;2.30;;;17.10;36.80;;;;;;5119635;27;45191;-77
2022/03/09 11:41:45;;;;;;;4.78;2.22;;;17.10;36.70;;;;;;5123177;27;46187;-77
2022/03/09 11:44:30;;;;;;;2.80;2.13;;;17.10;36.80;;;;;;5124416;27;46249;-77
2022/03/09 11:47:02;;;;;;;3.30;2.10;;;17.10;36.60;;;;;;5128970;27;45226;-77
2022/03/09 11:49:32;;;;;;;5.05;2.20;;;16.90;36.50;;;;;;5133442;27;45209;-77
2022/03/09 11:52:06;;;;;;;3.63;2.20;;;17.10;36.60;;;;;;5129777;27;45404;-77
2022/03/09 11:54:44;;;;;;;3.08;2.20;;;17.10;36.90;;;;;;5124821;27;46209;-77
2022/03/09 11:57:12;;;;;;;2.53;2.05;;;17.00;36.70;;;;;;5109313;27;45296;-77
2022/03/09 12:00:02;;;;;;;2.20;1.70;;;17.10;37.00;;;;;;5116988;27;45261;-77
2022/03/09 12:02:40;;;;;;;5.53;2.28;;;17.10;37.10;;;;;;5126020;27;45334;-77
2022/03/09 12:05:07;;;;;;;3.03;2.28;;;17.10;37.00;;;;;;5120516;27;47375;-77
2022/03/09 12:07:59;;;;;;;3.13;2.15;;;17.10;36.80;;;;;;5128777;27;45251;-77
2022/03/09 12:10:59;;;;;;;3.28;2.13;;;17.20;37.00;;;;;;5111263;27;45461;-77
2022/03/09 12:13:33;;;;;;;3.88;2.20;;;17.20;36.90;;;;;;5114091;27;45344;-77
2022/03/09 12:16:22;;;;;;;3.97;2.60;;;17.10;36.90;;;;;;5121915;27;46609;-77
2022/03/09 12:19:12;;;;;;;3.58;2.30;;;17.10;36.80;;;;;;5129150;27;45577;-77
2022/03/09 12:22:01;;;;;;;3.22;2.30;;;17.10;37.00;;;;;;5121633;27;45375;-77
2022/03/09 12:24:39;;;;;;;3.20;2.00;;;17.10;37.50;;;;;;5122164;27;45538;-77
2022/03/09 12:27:24;;;;;;;4.00;2.40;;;17.10;37.50;;;;;;5129168;27;47991;-77
2022/03/09 12:29:51;;;;;;;3.50;2.30;;;17.10;37.30;;;;;;5118677;27;45243;-77
2022/03/09 12:32:22;;;;;;;3.35;2.00;;;17.10;37.50;;;;;;5115158;27;45396;-76
2022/03/09 12:34:51;;;;;;;3.35;2.10;;;17.10;37.50;;;;;;5126193;27;45472;-77
2022/03/09 12:37:22;;;;;;;3.45;2.40;;;17.00;37.40;;;;;;5126866;27;46242;-77
2022/03/09 12:39:51;;;;;;;3.75;2.30;;;17.00;37.40;;;;;;5129060;27;45255;-77
2022/03/09 12:42:19;;;;;;;3.28;2.33;;;17.10;37.50;;;;;;5119910;27;45366;-77
2022/03/09 12:44:46;;;;;;;3.17;2.30;;;17.10;37.40;;;;;;5129068;27;45303;-77
2022/03/09 12:47:14;;;;;;;3.20;2.53;;;17.10;37.50;;;;;;5125805;27;47114;-77
2022/03/09 12:49:44;;;;;;;4.97;2.60;;;17.10;37.40;;;;;;5120019;27;45191;-77
2022/03/09 12:52:13;;;;;;;3.47;2.25;;;17.10;37.50;;;;;;5125337;27;45235;-77
2022/03/09 12:54:43;;;;;;;3.47;2.13;;;17.10;37.50;;;;;;5125816;27;45435;-77
2022/03/09 12:57:16;;;;;;;3.20;2.25;;;17.10;37.80;;;;;;5133432;27;47912;-77
2022/03/09 12:59:57;;;;;;;3.05;2.20;;;17.20;37.60;;;;;;5112436;27;46145;-77
2022/03/09 13:02:25;;;;;;;3.63;2.40;;;17.10;37.50;;;;;;5118222;27;45216;-76